Time;durP1;ratioP1;P1;durP2;ratioP2;P2;SDS_P1;SDS_P2;PMS_P1;PMS_P2;Temp;Humidity;BMP_temperature;BMP_pressure;BME280_temperature;BME280_humidity;BME280_pressure;Samples;Min_cycle;Max_cycle;Signal;HPM_P1;HPM_P2
2022/07/30 00:02:05;;;;;;;;;5.00;4.75;;;;;25.19;33.05;101228.44;5080801;27;47918;-37
2022/07/30 00:04:31;;;;;;;;;4.75;4.00;;;;;25.15;33.33;101230.53;5075948;27;73992;-37
2022/07/30 00:06:57;;;;;;;;;5.00;5.00;;;;;25.14;33.54;101236.00;5070767;28;45566;-36
2022/07/30 00:09:23;;;;;;;;;3.75;3.00;;;;;25.09;33.82;101241.75;5073541;27;45481;-37
2022/07/30 00:11:48;;;;;;;;;5.50;5.00;;;;;25.08;32.74;101240.03;5068006;28;47485;-37
2022/07/30 00:14:13;;;;;;;;;3.50;3.50;;;;;25.08;33.27;101245.38;5069498;27;46058;-37
2022/07/30 00:16:39;;;;;;;;;4.00;3.75;;;;;25.06;32.81;101239.31;5082298;27;59182;-37
2022/07/30 00:19:04;;;;;;;;;6.00;3.25;;;;;25.02;33.16;101232.50;5072570;27;64634;-36
2022/07/30 00:21:29;;;;;;;;;7.00;6.00;;;;;24.97;33.11;101229.34;5076413;27;46855;-36
2022/07/30 00:23:55;;;;;;;;;5.75;3.75;;;;;24.93;33.60;101234.09;5075247;27;57389;-36
2022/07/30 00:26:20;;;;;;;;;8.75;5.00;;;;;24.88;33.04;101232.72;5073416;27;59756;-36
2022/07/30 00:28:46;;;;;;;;;8.75;5.50;;;;;24.83;33.71;101238.47;5071498;27;58031;-36
2022/07/30 00:31:11;;;;;;;;;7.00;6.00;;;;;24.79;34.33;101235.19;5072976;27;45750;-37
2022/07/30 00:33:36;;;;;;;;;6.00;6.00;;;;;24.78;33.64;101232.63;5074548;27;67767;-36
2022/07/30 00:36:02;;;;;;;;;9.00;5.75;;;;;24.74;34.09;101231.19;5067495;27;73305;-36
2022/07/30 00:38:27;;;;;;;;;4.25;3.25;;;;;24.72;33.90;101231.28;5067924;27;45449;-37
2022/07/30 00:40:53;;;;;;;;;4.00;3.25;;;;;24.62;35.12;101225.81;5065364;27;48517;-36
2022/07/30 00:43:19;;;;;;;;;5.00;4.50;;;;;24.64;34.32;101234.56;5076356;27;46896;-36
2022/07/30 00:45:44;;;;;;;;;4.50;4.00;;;;;24.62;33.60;101233.00;5065906;28;45449;-36
2022/07/30 00:48:10;;;;;;;;;5.25;3.25;;;;;24.57;35.10;101230.66;5070122;27;45351;-36
2022/07/30 00:50:36;;;;;;;;;4.25;4.25;;;;;24.52;35.00;101223.94;5069716;28;45491;-37
2022/07/30 00:53:02;;;;;;;;;3.75;3.75;;;;;24.49;34.37;101226.84;5072361;28;45579;-37
2022/07/30 00:55:28;;;;;;;;;4.75;4.00;;;;;24.41;34.49;101222.09;5066628;27;45254;-37
2022/07/30 00:57:53;;;;;;;;;6.00;4.50;;;;;24.33;35.42;101211.13;5075964;27;56912;-37
2022/07/30 01:00:18;;;;;;;;;4.75;4.25;;;;;24.34;35.46;101223.56;5068093;27;68424;-38
2022/07/30 01:02:44;;;;;;;;;5.00;4.00;;;;;24.32;35.04;101220.16;5076356;27;46259;-38
2022/07/30 01:05:09;;;;;;;;;3.25;3.25;;;;;24.32;35.12;101230.84;5072489;27;45525;-37
2022/07/30 01:07:35;;;;;;;;;4.50;3.75;;;;;24.32;36.20;101229.00;5069193;27;45503;-37
2022/07/30 01:10:00;;;;;;;;;5.00;4.00;;;;;24.30;36.06;101220.25;5068205;28;45326;-36
2022/07/30 01:12:26;;;;;;;;;4.50;3.00;;;;;24.30;35.09;101225.63;5079361;28;45237;-36
2022/07/30 01:14:53;;;;;;;;;5.75;5.25;;;;;24.23;35.63;101221.72;5072265;27;45395;-37
2022/07/30 01:17:19;;;;;;;;;4.50;4.25;;;;;24.17;36.55;101225.72;5078578;28;45335;-36
2022/07/30 01:19:48;;;;;;;;;8.50;4.00;;;;;24.14;35.49;101225.09;5074596;27;45402;-36
2022/07/30 01:22:29;;;;;;;;;6.25;4.25;;;;;24.06;36.56;101223.00;5078504;27;46434;-36
2022/07/30 01:24:57;;;;;;;;;5.50;4.50;;;;;24.01;36.40;101223.34;5087949;27;45369;-37
2022/07/30 01:27:24;;;;;;;;;4.00;4.00;;;;;23.97;36.50;101213.84;5073493;27;45420;-36
2022/07/30 01:29:51;;;;;;;;;5.00;3.50;;;;;23.93;36.42;101214.22;5075395;27;45294;-37
2022/07/30 01:32:18;;;;;;;;;3.75;3.75;;;;;23.92;36.24;101213.38;5072570;28;46235;-38
2022/07/30 01:34:45;;;;;;;;;4.00;4.00;;;;;23.92;35.97;101205.34;5082032;27;45807;-37
2022/07/30 01:37:10;;;;;;;;;7.00;6.00;;;;;23.92;35.83;101207.16;5081421;27;58215;-37
2022/07/30 01:39:36;;;;;;;;;4.00;3.25;;;;;23.88;37.37;101206.53;5074175;27;45308;-37
2022/07/30 01:42:05;;;;;;;;;9.50;6.00;;;;;23.92;37.18;101217.84;5065536;27;72170;-37
2022/07/30 01:44:31;;;;;;;;;6.00;4.25;;;;;23.93;36.66;101212.38;5071154;28;45263;-37
2022/07/30 01:46:57;;;;;;;;;4.75;4.75;;;;;23.92;36.63;101216.03;5078334;27;64992;-37
2022/07/30 01:49:23;;;;;;;;;6.25;5.00;;;;;23.91;36.77;101226.84;5075506;27;45386;-38
2022/07/30 01:51:49;;;;;;;;;5.50;4.50;;;;;23.89;37.15;101221.63;5065014;27;45359;-38
2022/07/30 01:54:16;;;;;;;;;5.00;3.75;;;;;23.83;36.94;101225.59;5074138;27;46774;-38
2022/07/30 01:56:43;;;;;;;;;5.75;3.25;;;;;23.82;36.79;101228.41;5072743;27;45836;-38
2022/07/30 01:59:09;;;;;;;;;2.50;2.00;;;;;23.81;36.72;101229.34;5066865;28;45341;-37
2022/07/30 02:01:34;;;;;;;;;6.75;5.00;;;;;23.81;38.08;101222.19;5064875;27;47218;-37
2022/07/30 02:04:01;;;;;;;;;4.00;3.00;;;;;23.81;36.40;101221.34;5069999;28;45287;-36
2022/07/30 02:06:33;;;;;;;;;5.25;4.25;;;;;23.78;37.16;101225.06;5068145;27;45577;-36
2022/07/30 02:09:02;;;;;;;;;5.50;4.75;;;;;23.74;37.29;101222.72;5067302;28;45470;-37
2022/07/30 02:14:18;;;;;;;;;6.25;4.50;;;;;23.65;36.44;101222.44;5070383;27;45896;-36
2022/07/30 02:16:45;;;;;;;;;6.00;4.00;;;;;23.61;37.24;101220.97;5072105;27;45485;-37
2022/07/30 02:19:14;;;;;;;;;4.50;4.25;;;;;23.57;36.69;101222.19;5083811;27;45440;-36
2022/07/30 02:21:47;;;;;;;;;5.50;4.75;;;;;23.59;37.38;101222.06;5067839;28;46219;-37
2022/07/30 02:24:15;;;;;;;;;8.00;6.00;;;;;23.60;37.67;101219.28;5075473;27;45931;-37
2022/07/30 02:26:42;;;;;;;;;6.75;5.00;;;;;23.62;36.73;101219.16;5065183;28;45288;-36
2022/07/30 02:29:08;;;;;;;;;5.75;5.75;;;;;23.59;37.82;101212.22;5074482;27;45267;-38
2022/07/30 02:31:34;;;;;;;;;9.25;5.50;;;;;23.59;36.70;101216.72;5074219;28;46096;-36
2022/07/30 02:34:01;;;;;;;;;6.25;5.25;;;;;23.56;37.12;101214.28;5069547;27;45823;-36
2022/07/30 02:36:29;;;;;;;;;3.50;3.50;;;;;23.50;37.10;101208.41;5075258;28;45585;-36
2022/07/30 02:38:55;;;;;;;;;7.00;6.00;;;;;23.45;36.58;101204.38;5073307;27;46801;-36
2022/07/30 02:41:23;;;;;;;;;5.00;5.00;;;;;23.40;37.50;101204.72;5066901;28;45909;-36
2022/07/30 02:43:50;;;;;;;;;6.25;5.75;;;;;23.39;36.97;101208.38;5074560;27;45773;-36
2022/07/30 02:46:17;;;;;;;;;8.00;5.00;;;;;23.33;38.11;101197.28;5073722;27;45426;-36
2022/07/30 02:48:44;;;;;;;;;4.50;4.50;;;;;23.30;38.29;101204.56;5091230;27;45443;-36
2022/07/30 02:51:09;;;;;;;;;6.00;5.00;;;;;23.28;38.03;101203.81;5071709;28;45493;-36
2022/07/30 02:53:36;;;;;;;;;4.75;4.75;;;;;23.28;38.94;101203.81;5070984;28;45366;-37
2022/07/30 02:56:02;;;;;;;;;4.00;4.00;;;;;23.30;36.97;101206.34;5072858;27;45475;-37
2022/07/30 02:58:29;;;;;;;;;5.50;5.00;;;;;23.27;37.55;101210.09;5078211;27;45615;-37
2022/07/30 03:00:56;;;;;;;;;5.00;4.00;;;;;23.22;37.22;101214.09;5065438;28;70451;-37
2022/07/30 03:03:27;;;;;;;;;5.50;5.00;;;;;23.20;38.25;101216.03;5072063;28;69938;-37
2022/07/30 03:05:54;;;;;;;;;4.25;4.25;;;;;23.17;37.99;101210.91;5067112;28;45625;-36
2022/07/30 03:08:19;;;;;;;;;4.25;3.75;;;;;23.15;38.23;101212.81;5072022;28;45367;-37
2022/07/30 03:10:46;;;;;;;;;7.00;6.25;;;;;23.16;38.17;101214.50;5074496;28;74802;-37
2022/07/30 03:13:12;;;;;;;;;8.50;6.25;;;;;23.16;38.19;101210.06;5073944;27;46154;-36
2022/07/30 03:15:43;;;;;;;;;13.00;8.75;;;;;23.15;37.87;101216.34;5074131;27;45384;-37
2022/07/30 03:18:11;;;;;;;;;16.00;11.25;;;;;23.16;37.37;101215.38;5067327;28;45306;-37
2022/07/30 03:20:37;;;;;;;;;20.00;16.25;;;;;23.16;37.79;101206.50;5067245;27;45409;-36
2022/07/30 03:23:03;;;;;;;;;23.25;18.25;;;;;23.15;38.48;101211.00;5073904;28;45415;-37
2022/07/30 03:25:29;;;;;;;;;27.75;21.00;;;;;23.17;38.50;101205.56;5070147;28;65927;-36
2022/07/30 03:27:58;;;;;;;;;29.25;25.50;;;;;23.20;39.15;101206.19;5063870;28;45512;-36
2022/07/30 03:30:25;;;;;;;;;25.75;22.50;;;;;23.21;38.36;101212.38;5067790;28;46339;-36
2022/07/30 03:32:54;;;;;;;;;28.00;21.25;;;;;23.20;38.38;101205.34;5067694;28;45386;-36
2022/07/30 03:35:21;;;;;;;;;23.00;19.50;;;;;23.18;38.61;101201.91;5074736;27;45520;-36
2022/07/30 03:37:47;;;;;;;;;25.75;20.25;;;;;23.18;38.59;101207.25;5065114;27;45343;-36
2022/07/30 03:40:13;;;;;;;;;20.25;15.00;;;;;23.17;38.63;101206.41;5074117;27;45245;-36
2022/07/30 03:42:38;;;;;;;;;16.75;15.00;;;;;23.18;38.97;101209.91;5068133;27;45346;-36
2022/07/30 03:45:06;;;;;;;;;10.00;8.75;;;;;23.19;39.34;101207.13;5072509;27;45384;-36
2022/07/30 03:47:32;;;;;;;;;9.00;8.50;;;;;23.22;37.80;101206.06;5070031;28;45789;-36
2022/07/30 03:49:58;;;;;;;;;10.25;9.00;;;;;23.20;38.42;101208.84;5067002;28;46333;-36
2022/07/30 03:52:25;;;;;;;;;10.00;10.00;;;;;23.21;38.38;101215.03;5066862;28;45485;-36
2022/07/30 03:54:50;;;;;;;;;12.25;9.25;;;;;23.20;38.32;101219.53;5093084;27;45508;-37
2022/07/30 03:57:16;;;;;;;;;9.50;8.00;;;;;23.20;38.20;101224.03;5068453;28;71431;-36
2022/07/30 03:59:41;;;;;;;;;5.75;5.00;;;;;23.18;38.59;101228.59;5082111;27;71446;-37
2022/07/30 04:02:07;;;;;;;;;8.00;7.00;;;;;23.12;37.63;101227.22;5069594;28;45282;-36
2022/07/30 04:04:32;;;;;;;;;7.75;7.50;;;;;23.07;38.43;101226.72;5071397;27;67132;-37
2022/07/30 04:06:58;;;;;;;;;8.00;7.00;;;;;23.07;38.78;101219.56;5052432;28;45233;-37
2022/07/30 04:09:23;;;;;;;;;6.00;5.00;;;;;23.07;38.84;101221.38;5064989;27;45263;-37
2022/07/30 04:11:49;;;;;;;;;7.00;6.00;;;;;23.05;39.31;101218.81;5073951;28;47170;-37
2022/07/30 04:14:15;;;;;;;;;7.00;6.00;;;;;23.02;38.19;101212.81;5066046;27;45625;-37
2022/07/30 04:16:47;;;;;;;;;9.75;6.00;;;;;22.95;38.82;101217.75;5064119;28;45471;-41
2022/07/30 04:19:17;;;;;;;;;6.00;5.50;;;;;22.92;38.78;101212.63;5087860;27;47043;-37
2022/07/30 04:21:43;;;;;;;;;5.25;5.25;;;;;22.91;38.47;101221.59;5067219;27;45403;-37
2022/07/30 04:24:09;;;;;;;;;5.25;4.75;;;;;22.89;38.35;101227.03;5058573;28;58129;-37
2022/07/30 04:26:36;;;;;;;;;8.00;6.00;;;;;22.88;38.38;101228.00;5066258;28;55864;-37
2022/07/30 04:29:04;;;;;;;;;6.00;4.00;;;;;22.86;39.19;101229.06;5075532;27;64087;-36
2022/07/30 04:31:34;;;;;;;;;6.00;5.00;;;;;22.85;38.20;101225.56;5068447;28;45508;-36
2022/07/30 04:33:59;;;;;;;;;3.75;3.75;;;;;22.83;38.85;101232.81;5077254;27;45462;-41
2022/07/30 04:36:24;;;;;;;;;4.75;3.00;;;;;22.80;38.47;101230.34;5082017;27;45367;-37
2022/07/30 04:38:50;;;;;;;;;6.00;4.25;;;;;22.78;39.04;101231.44;5067229;27;75695;-37
2022/07/30 04:41:16;;;;;;;;;6.50;4.50;;;;;22.70;37.91;101216.81;5071917;27;73250;-36
2022/07/30 04:43:41;;;;;;;;;5.50;5.50;;;;;22.69;38.48;101232.94;5067244;27;45620;-36
2022/07/30 04:46:06;;;;;;;;;5.00;4.00;;;;;22.64;39.80;101230.59;5069437;27;62333;-36
2022/07/30 04:48:32;;;;;;;;;4.75;4.00;;;;;22.66;39.06;101228.66;5068718;28;65042;-36
2022/07/30 04:51:00;;;;;;;;;5.00;5.00;;;;;22.65;38.77;101229.63;5069266;27;63375;-36
2022/07/30 04:53:27;;;;;;;;;9.00;6.00;;;;;22.65;38.38;101232.31;5091341;27;45405;-36
2022/07/30 04:55:54;;;;;;;;;6.25;4.75;;;;;22.64;38.62;101225.25;5076850;27;45295;-36
2022/07/30 04:58:20;;;;;;;;;5.00;5.00;;;;;22.60;39.36;101226.44;5074715;27;45579;-36
2022/07/30 05:00:46;;;;;;;;;4.50;4.00;;;;;22.58;39.37;101224.84;5071347;28;45848;-36
2022/07/30 05:03:13;;;;;;;;;5.00;4.75;;;;;22.57;39.30;101234.63;5076797;27;45323;-37
2022/07/30 05:05:39;;;;;;;;;5.00;4.00;;;;;22.55;39.21;101240.06;5072367;27;45274;-37
2022/07/30 05:08:05;;;;;;;;;2.00;2.00;;;;;22.56;38.66;101236.47;5070353;27;45618;-37
2022/07/30 05:10:30;;;;;;;;;7.00;3.75;;;;;22.55;38.97;101232.06;5073713;27;58124;-37
2022/07/30 05:12:56;;;;;;;;;4.00;4.00;;;;;22.53;39.44;101228.66;5074695;27;45343;-37
2022/07/30 05:15:22;;;;;;;;;6.25;4.25;;;;;22.54;39.72;101237.50;5070279;27;69875;-37
2022/07/30 05:17:47;;;;;;;;;5.75;5.00;;;;;22.56;38.99;101240.94;5071354;27;46697;-37
2022/07/30 05:20:13;;;;;;;;;6.75;6.00;;;;;22.57;39.28;101242.66;5063354;28;45370;-37
2022/07/30 05:22:38;;;;;;;;;4.25;4.00;;;;;22.61;39.75;101245.94;5076657;27;45571;-37
2022/07/30 05:25:04;;;;;;;;;6.00;6.00;;;;;22.64;39.01;101248.41;5069916;27;51547;-37
2022/07/30 05:27:29;;;;;;;;;4.00;4.00;;;;;22.66;39.43;101244.66;5063615;27;46021;-37
2022/07/30 05:29:55;;;;;;;;;4.75;4.75;;;;;22.69;39.17;101246.28;5073400;27;64359;-37
2022/07/30 05:32:20;;;;;;;;;4.75;4.75;;;;;22.67;38.96;101257.06;5069215;28;45327;-37
2022/07/30 05:34:45;;;;;;;;;5.00;4.50;;;;;22.64;38.66;101251.91;5073260;27;45559;-37
2022/07/30 05:37:11;;;;;;;;;5.25;4.00;;;;;22.64;38.38;101254.59;5074559;27;72927;-37
2022/07/30 05:39:36;;;;;;;;;5.00;5.00;;;;;22.64;38.52;101256.41;5073647;27;71132;-37
2022/07/30 05:42:01;;;;;;;;;6.00;5.00;;;;;22.59;38.57;101251.38;5071022;27;63186;-37
2022/07/30 05:44:27;;;;;;;;;6.25;5.50;;;;;22.61;38.57;101261.97;5080491;27;71687;-37
2022/07/30 05:46:52;;;;;;;;;8.00;6.00;;;;;22.57;38.68;101261.31;5066265;27;70711;-36
2022/07/30 05:49:18;;;;;;;;;5.00;5.00;;;;;22.54;38.54;101262.41;5069039;28;45261;-37
2022/07/30 05:51:43;;;;;;;;;5.00;5.00;;;;;22.52;38.95;101256.31;5064471;27;61443;-37
2022/07/30 05:54:08;;;;;;;;;8.00;5.00;;;;;22.53;38.81;101265.16;5076564;28;69949;-37
2022/07/30 05:56:34;;;;;;;;;5.75;5.75;;;;;22.55;38.78;101264.09;5077833;27;45944;-37
2022/07/30 05:59:00;;;;;;;;;6.00;5.25;;;;;22.55;39.33;101264.09;5072277;28;45280;-37
2022/07/30 06:01:25;;;;;;;;;7.00;5.75;;;;;22.58;39.11;101264.84;5065684;27;45545;-37
2022/07/30 06:03:51;;;;;;;;;6.50;5.00;;;;;22.56;39.14;101256.97;5076491;27;45310;-37
2022/07/30 06:06:16;;;;;;;;;8.50;5.50;;;;;22.58;38.44;101267.53;5071962;27;70027;-37
2022/07/30 06:08:42;;;;;;;;;8.50;5.00;;;;;22.57;38.86;101261.31;5088754;27;72826;-37
2022/07/30 06:11:08;;;;;;;;;6.50;5.25;;;;;22.56;38.96;101257.81;5078677;28;45512;-37
2022/07/30 06:13:34;;;;;;;;;8.00;7.00;;;;;22.60;38.94;101262.94;5070651;27;45375;-37
2022/07/30 06:15:59;;;;;;;;;6.25;5.75;;;;;22.60;39.03;101255.78;5065819;28;45381;-37
2022/07/30 06:18:25;;;;;;;;;5.25;4.00;;;;;22.62;39.69;101264.53;5071354;27;58950;-37
2022/07/30 06:20:53;;;;;;;;;7.00;5.50;;;;;22.68;39.43;101257.91;5069541;27;62755;-36
2022/07/30 06:23:19;;;;;;;;;4.75;4.00;;;;;22.75;39.04;101272.50;5076916;27;45460;-39
2022/07/30 06:25:44;;;;;;;;;5.25;5.25;;;;;22.79;38.97;101278.50;5066617;27;46064;-36
2022/07/30 06:28:09;;;;;;;;;6.25;6.00;;;;;22.82;39.21;101273.78;5070904;28;45527;-36
2022/07/30 06:30:35;;;;;;;;;5.75;5.75;;;;;22.83;38.88;101280.84;5071793;27;63785;-36
2022/07/30 06:33:00;;;;;;;;;5.25;5.00;;;;;22.85;38.73;101278.91;5067299;27;63904;-36
2022/07/30 06:35:25;;;;;;;;;6.75;5.25;;;;;22.87;38.80;101287.66;5065097;28;68063;-36
2022/07/30 06:37:51;;;;;;;;;8.50;4.25;;;;;22.86;38.79;101283.31;5072066;28;45185;-35
2022/07/30 06:40:16;;;;;;;;;6.00;4.75;;;;;22.89;38.88;101295.56;5077896;27;52063;-36
2022/07/30 06:42:42;;;;;;;;;13.75;8.50;;;;;22.91;38.64;101298.97;5076092;27;45569;-36
2022/07/30 06:45:08;;;;;;;;;8.50;5.25;;;;;22.90;38.57;101297.28;5071648;27;45498;-37
2022/07/30 06:47:34;;;;;;;;;6.25;5.75;;;;;22.92;38.35;101300.69;5078389;27;45386;-37
2022/07/30 06:50:00;;;;;;;;;7.25;5.25;;;;;22.92;38.88;101298.88;5070603;27;45352;-36
2022/07/30 06:52:26;;;;;;;;;5.50;4.00;;;;;22.91;39.12;101297.19;5062197;27;45485;-36
2022/07/30 06:54:51;;;;;;;;;8.25;5.25;;;;;22.96;39.00;101301.34;5079901;27;45927;-36
2022/07/30 06:57:17;;;;;;;;;7.00;5.00;;;;;22.97;38.51;101300.41;5063040;28;45284;-37
2022/07/30 06:59:42;;;;;;;;;6.25;6.00;;;;;22.98;39.12;101302.09;5062074;28;63212;-36
2022/07/30 07:02:07;;;;;;;;;6.75;6.00;;;;;23.00;38.48;101303.69;5071654;28;45545;-37
2022/07/30 07:04:33;;;;;;;;;5.00;4.25;;;;;23.03;38.97;101305.28;5072071;28;45403;-36
2022/07/30 07:06:58;;;;;;;;;9.50;6.25;;;;;23.05;38.71;101309.56;5077297;27;45251;-37
2022/07/30 07:09:24;;;;;;;;;5.00;4.25;;;;;23.09;38.99;101312.91;5074669;27;45435;-36
2022/07/30 07:11:49;;;;;;;;;4.75;4.75;;;;;23.12;38.97;101318.88;5078583;28;45275;-36
2022/07/30 07:14:15;;;;;;;;;4.50;4.00;;;;;23.19;39.02;101321.94;5072070;27;45423;-36
2022/07/30 07:16:40;;;;;;;;;7.00;7.00;;;;;23.23;38.94;101326.13;5068346;27;45157;-36
2022/07/30 07:19:05;;;;;;;;;6.00;4.25;;;;;23.27;38.94;101321.44;5065089;28;45850;-36
2022/07/30 07:21:31;;;;;;;;;7.00;6.00;;;;;23.31;39.11;101320.22;5070078;27;66656;-36
2022/07/30 07:23:59;;;;;;;;;8.50;6.00;;;;;23.34;38.40;101325.38;5072603;28;67368;-36
2022/07/30 07:26:25;;;;;;;;;5.25;5.25;;;;;23.39;38.28;101320.56;5060802;28;45339;-36
2022/07/30 07:28:50;;;;;;;;;9.00;6.00;;;;;23.41;38.91;101323.97;5077308;27;45475;-37
2022/07/30 07:31:15;;;;;;;;;6.75;5.00;;;;;23.46;39.00;101323.59;5069501;27;66984;-48
2022/07/30 07:33:41;;;;;;;;;5.25;5.25;;;;;23.52;38.58;101325.84;5063038;28;47553;-45
2022/07/30 07:36:07;;;;;;;;;10.00;6.50;;;;;23.59;38.77;101319.09;5059342;28;45415;-45
2022/07/30 07:38:33;;;;;;;;;7.75;7.00;;;;;23.66;38.32;101320.34;5069240;28;45421;-44
2022/07/30 07:40:58;;;;;;;;;7.75;6.50;;;;;23.74;38.69;101311.75;5068203;27;45517;-45
2022/07/30 07:43:24;;;;;;;;;4.50;4.50;;;;;23.79;38.73;101322.97;5079259;27;45940;-43
2022/07/30 07:45:50;;;;;;;;;5.25;5.00;;;;;23.85;38.42;101313.69;5078457;27;45260;-46
2022/07/30 07:48:16;;;;;;;;;6.00;4.00;;;;;23.91;38.17;101310.56;5078160;27;45268;-47
2022/07/30 07:50:41;;;;;;;;;6.75;4.25;;;;;23.98;37.97;101311.81;5078173;27;45404;-48
2022/07/30 07:53:07;;;;;;;;;7.75;5.00;;;;;24.02;38.38;101307.94;5077828;27;60567;-46
2022/07/30 07:55:32;;;;;;;;;7.00;7.00;;;;;24.10;38.21;101318.06;5076800;28;65465;-45
2022/07/30 07:57:58;;;;;;;;;6.50;6.50;;;;;24.17;37.91;101316.63;5092163;27;45267;-47
2022/07/30 08:00:23;;;;;;;;;8.00;5.25;;;;;24.22;37.75;101311.81;5077867;28;45733;-45
2022/07/30 08:02:49;;;;;;;;;6.25;6.25;;;;;24.29;37.92;101311.31;5078002;28;46843;-43
2022/07/30 08:05:15;;;;;;;;;8.50;5.25;;;;;24.35;37.74;101309.03;5077762;27;45331;-44
2022/07/30 08:07:41;;;;;;;;;7.00;6.00;;;;;24.44;37.22;101312.84;5074646;28;45322;-43
2022/07/30 08:10:07;;;;;;;;;7.00;5.75;;;;;24.53;37.15;101309.47;5076812;28;45354;-46
2022/07/30 08:12:33;;;;;;;;;5.00;4.75;;;;;24.59;37.36;101309.00;5077647;28;45236;-45
2022/07/30 08:14:58;;;;;;;;;8.50;5.00;;;;;24.67;36.99;101303.06;5077225;28;51174;-44
2022/07/30 08:17:24;;;;;;;;;7.50;6.50;;;;;24.74;37.25;101306.97;5077800;28;45388;-46
2022/07/30 08:19:49;;;;;;;;;6.00;5.00;;;;;24.82;36.73;101304.56;5078365;27;59878;-46
2022/07/30 08:22:15;;;;;;;;;7.75;6.00;;;;;24.92;36.63;101307.34;5080965;27;45482;-44
2022/07/30 08:24:41;;;;;;;;;8.00;6.50;;;;;24.99;36.74;101308.56;5080775;27;45146;-44
2022/07/30 08:27:06;;;;;;;;;5.50;5.25;;;;;25.08;36.59;101312.34;5080770;27;52285;-46
2022/07/30 08:29:31;;;;;;;;;9.50;5.50;;;;;25.15;36.32;101313.56;5080013;27;55269;-49
2022/07/30 08:31:57;;;;;;;;;8.25;6.50;;;;;25.22;36.31;101316.59;5076299;27;46447;-47
2022/07/30 08:34:23;;;;;;;;;8.00;5.75;;;;;25.27;35.91;101317.13;5082535;27;45340;-46
2022/07/30 08:36:49;;;;;;;;;5.50;3.25;;;;;25.35;35.77;101316.50;5080097;27;45302;-44
2022/07/30 08:39:15;;;;;;;;;8.00;6.00;;;;;25.42;36.09;101325.75;5075754;28;45442;-45
2022/07/30 08:41:41;;;;;;;;;8.50;6.25;;;;;25.48;35.92;101330.63;5074932;27;74846;-47
2022/07/30 08:44:09;;;;;;;;;6.00;6.00;;;;;25.52;35.16;101320.50;5077706;27;45325;-48
2022/07/30 08:46:35;;;;;;;;;8.25;7.00;;;;;25.56;34.80;101322.78;5070817;27;45174;-50
2022/07/30 08:49:01;;;;;;;;;7.00;3.00;;;;;25.59;34.87;101321.72;5076136;27;66835;-48
2022/07/30 08:51:27;;;;;;;;;6.75;6.00;;;;;25.61;34.85;101319.75;5084240;27;45982;-48
2022/07/30 08:53:52;;;;;;;;;9.50;7.75;;;;;25.68;34.59;101322.78;5075946;28;66725;-47
2022/07/30 08:56:18;;;;;;;;;6.75;4.00;;;;;25.71;34.49;101322.53;5081134;27;45253;-43
2022/07/30 08:58:44;;;;;;;;;9.00;5.00;;;;;25.74;34.60;101320.44;5076113;27;45494;-46
2022/07/30 09:01:10;;;;;;;;;7.50;5.00;;;;;25.80;34.69;101318.22;5093992;27;45390;-46
2022/07/30 09:03:37;;;;;;;;;5.25;4.50;;;;;25.84;34.25;101323.22;5063275;28;51089;-44
2022/07/30 09:06:04;;;;;;;;;5.75;5.75;;;;;25.90;34.02;101324.53;5081701;27;45339;-47
2022/07/30 09:08:29;;;;;;;;;4.25;4.25;;;;;25.94;33.69;101326.91;5081513;27;45616;-45
2022/07/30 09:10:55;;;;;;;;;8.75;5.50;;;;;25.99;34.30;101317.59;5081682;27;45297;-44
2022/07/30 09:13:34;;;;;;;;;7.50;5.25;;;;;26.05;34.72;101319.78;5077923;27;53269;-44
2022/07/30 09:16:00;;;;;;;;;3.00;3.00;;;;;26.10;33.55;101315.75;5071487;27;45353;-48
2022/07/30 09:18:36;;;;;;;;;5.50;2.00;;;;;26.16;33.52;101322.41;5081548;27;45572;-45
2022/07/30 09:21:20;;;;;;;;;5.75;4.00;;;;;26.23;32.58;101323.59;5079792;27;46036;-46
2022/07/30 09:24:04;;;;;;;;;7.75;3.75;;;;;26.36;32.91;101320.72;5075773;27;45425;-45
2022/07/30 09:26:31;;;;;;;;;3.50;3.50;;;;;26.45;32.24;101327.16;5081614;27;45370;-47
2022/07/30 09:29:17;;;;;;;;;4.50;3.75;;;;;26.52;31.59;101326.50;5079119;27;45234;-50
2022/07/30 09:31:56;;;;;;;;;4.50;3.00;;;;;26.59;31.84;101332.19;5079906;27;45419;-45
2022/07/30 09:34:37;;;;;;;;;3.00;2.50;;;;;26.69;31.97;101330.44;5077667;27;45656;-44
2022/07/30 09:37:08;;;;;;;;;3.25;3.25;;;;;26.77;31.31;101339.69;5079237;27;45377;-45
2022/07/30 09:39:36;;;;;;;;;5.25;3.75;;;;;26.86;31.26;101334.38;5072772;28;45287;-45
2022/07/30 09:42:03;;;;;;;;;4.00;2.75;;;;;26.97;31.03;101327.19;5076334;28;47121;-49
2022/07/30 09:44:29;;;;;;;;;5.00;4.00;;;;;27.08;31.76;101329.81;5080000;27;45684;-46
2022/07/30 09:46:56;;;;;;;;;3.25;3.00;;;;;27.23;30.98;101339.22;5069478;27;45230;-45
2022/07/30 09:49:26;;;;;;;;;5.75;3.50;;;;;27.38;31.23;101331.66;5076668;27;45408;-45
2022/07/30 09:51:53;;;;;;;;;5.75;4.00;;;;;27.59;30.97;101339.63;5080415;27;45334;-45
2022/07/30 09:54:18;;;;;;;;;5.75;3.00;;;;;27.89;30.08;101343.25;5081015;27;45282;-50
2022/07/30 09:56:46;;;;;;;;;5.25;3.25;;;;;28.49;30.20;101339.56;5071935;27;65922;-46
2022/07/30 09:59:28;;;;;;;;;4.50;3.25;;;;;29.55;29.26;101342.94;5080305;27;45734;-45
2022/07/30 10:01:54;;;;;;;;;4.75;3.00;;;;;30.64;28.26;101336.59;5073796;28;45262;-45
2022/07/30 10:04:27;;;;;;;;;3.25;3.25;;;;;31.72;27.62;101331.53;5080705;27;45457;-45
2022/07/30 10:06:53;;;;;;;;;3.00;3.00;;;;;32.73;25.99;101340.41;5076034;28;45358;-48
2022/07/30 10:09:28;;;;;;;;;4.00;3.00;;;;;33.77;25.80;101327.66;5076360;27;45335;-45
2022/07/30 10:11:55;;;;;;;;;3.75;2.75;;;;;34.72;22.92;101329.06;5078233;27;45409;-48
2022/07/30 10:14:22;;;;;;;;;7.00;4.75;;;;;35.51;22.05;101328.47;5070778;27;45180;-46
2022/07/30 10:16:49;;;;;;;;;4.50;4.00;;;;;36.16;21.59;101328.53;5076880;28;45374;-46
2022/07/30 10:19:16;;;;;;;;;4.00;4.00;;;;;36.55;22.96;101329.91;5075647;28;45386;-50
2022/07/30 10:21:42;;;;;;;;;3.25;3.00;;;;;37.00;23.00;101326.84;5075286;27;46323;-49
2022/07/30 10:24:07;;;;;;;;;5.75;3.00;;;;;37.42;22.03;101322.25;5061828;28;45453;-50
2022/07/30 10:26:36;;;;;;;;;2.50;2.50;;;;;37.90;21.78;101321.31;5077415;27;58311;-50
2022/07/30 10:29:02;;;;;;;;;3.25;3.25;;;;;38.53;20.19;101324.50;5055954;28;45328;-43
2022/07/30 10:31:27;;;;;;;;;1.75;1.75;;;;;39.09;19.96;101320.38;5078510;27;45363;-43
2022/07/30 10:33:53;;;;;;;;;2.00;2.00;;;;;39.43;18.61;101314.75;5076693;27;70743;-44
2022/07/30 10:36:19;;;;;;;;;4.00;3.75;;;;;39.60;17.16;101315.94;5071679;27;63022;-44
2022/07/30 10:38:46;;;;;;;;;3.50;3.00;;;;;39.79;19.31;101310.53;5074968;27;45386;-45
2022/07/30 10:41:46;;;;;;;;;5.50;1.75;;;;;39.99;18.79;101314.00;5079699;27;45414;-44
2022/07/30 10:44:21;;;;;;;;;3.00;2.50;;;;;40.12;17.30;101302.06;5079250;27;45186;-47
2022/07/30 10:47:04;;;;;;;;;4.00;3.50;;;;;40.40;18.12;101301.63;5070693;27;45289;-46
2022/07/30 10:49:30;;;;;;;;;2.75;2.75;;;;;40.70;17.69;101303.66;5079144;28;45361;-45
2022/07/30 10:51:56;;;;;;;;;4.75;2.75;;;;;40.93;15.29;101308.47;5078589;27;45366;-46
2022/07/30 10:54:34;;;;;;;;;3.00;1.00;;;;;41.07;16.65;101308.31;5076305;27;45367;-46
2022/07/30 10:57:13;;;;;;;;;4.25;4.25;;;;;41.20;17.40;101308.13;5076356;27;45308;-48
2022/07/30 10:59:54;;;;;;;;;3.50;3.50;;;;;41.42;16.37;101307.63;5072081;28;45247;-48
2022/07/30 11:02:21;;;;;;;;;4.75;2.00;;;;;41.52;15.77;101303.25;5072135;28;46440;-49
2022/07/30 11:04:47;;;;;;;;;6.25;6.00;;;;;41.59;15.09;101310.56;5080379;27;45327;-47
2022/07/30 11:07:26;;;;;;;;;3.00;3.00;;;;;41.71;17.17;101306.81;5078720;28;45514;-45
2022/07/30 11:09:53;;;;;;;;;4.75;3.50;;;;;41.85;14.86;101296.44;5077200;28;45338;-50
2022/07/30 11:12:40;;;;;;;;;5.75;5.25;;;;;41.99;15.92;101302.56;5089614;27;46849;-48
2022/07/30 11:15:09;;;;;;;;;5.00;5.00;;;;;42.11;16.55;101294.38;5078162;27;45766;-48
2022/07/30 11:17:56;;;;;;;;;3.00;3.00;;;;;42.16;15.11;101297.22;5071836;27;45242;-47
2022/07/30 11:20:22;;;;;;;;;3.00;3.00;;;;;42.23;14.06;101294.34;5072982;27;45229;-43
2022/07/30 11:22:48;;;;;;;;;4.25;2.75;;;;;42.32;16.01;101294.81;5070543;28;45470;-44
2022/07/30 11:25:26;;;;;;;;;4.25;3.00;;;;;42.45;15.84;101289.91;5083146;27;45329;-47
2022/07/30 11:27:51;;;;;;;;;6.00;3.00;;;;;42.51;15.40;101277.13;5076828;27;45461;-50